オークランド の空港の天気 - METARとTAF

オークランド国際空港 ( NZAA / AKL ) - ニュージーランド オークランド|オークランド
飛行場実況気象(Metar)
観測時間05/23 13:00 NZST (05/23 01:00 UTC)
風向・風速西 9m/s 瞬間風速19m/s
視程10km以上
天気現象
全天の4割程度の雲 雲底高度 1490m
全天の8割程度の雲 雲底高度 1830m
気温13℃
湿度72%
気圧995hPa
METARNZAA 230100Z AUTO 27018G37KT 9999 SCT049/// BKN060/// 13/08 Q0995 NOSIG
過去の天気等 Google飛行場航空写真 Wunderground天気予報

過去48時間のMETAR

飛行場予報(TAF)
発表時間: 5/23 12:55 NZST (5/23 00:55 UTC)
予報対象時間: 23日12時 NZST ~ 24日12時 NZST
風向・風速西 9m/s 瞬間風速 18m/s
視程10km以上
天気現象弱いしゅう雨
少しの雲 雲底高度 430m
全天の8割程度の雲 雲底高度 1,520m
23日12時 NZST ~ 23日24時 NZST に一時的に
視程4,000m
天気現象しゅう雨
少しの塔状積雲 雲底高度 610m
23日12時 NZST ~ 23日24時 NZST に 確率 40% で一時的に
風向・風速西 8m/s 瞬間風速 21m/s
視程2,500m
天気現象強い雷雨あられ
少しの積乱雲 雲底高度 610m
TAF AMD NZAA 230055Z 2300/2400 28018G35KT 9999 -SHRA FEW014 BKN050
TEMPO 2300/2312 4000 SHRA FEW020TCU
PROB40 TEMPO 2300/2312 26015G40KT 2500 +TSRAGS FEW020CB